createdAt,value
2018-06-27T00:01:11.158Z,90.00
2018-06-27T00:03:39.287Z,90.30
2018-06-27T00:06:07.492Z,90.20
2018-06-27T00:08:35.971Z,90.00
2018-06-27T00:11:05.943Z,90.00
2018-06-27T00:13:34.076Z,89.30
2018-06-27T00:16:02.216Z,89.10
2018-06-27T00:18:30.315Z,89.50
2018-06-27T00:20:58.406Z,88.90
2018-06-27T00:23:26.631Z,88.60
2018-06-27T00:28:22.724Z,89.60
2018-06-27T00:30:50.822Z,90.40
2018-06-27T00:33:18.983Z,90.20
2018-06-27T00:35:47.107Z,89.50
2018-06-27T00:38:16.787Z,89.60
2018-06-27T00:40:45.108Z,89.10
2018-06-27T00:43:13.663Z,89.70
2018-06-27T00:48:10.139Z,90.00
2018-06-27T00:50:38.575Z,90.10
2018-06-27T00:53:06.723Z,89.90
2018-06-27T00:55:35.115Z,90.30
2018-06-27T00:58:03.210Z,90.30
2018-06-27T01:00:31.346Z,90.50
2018-06-27T01:02:59.474Z,90.20
2018-06-27T01:05:27.678Z,90.20
2018-06-27T01:07:55.875Z,90.20
2018-06-27T01:10:24.064Z,90.30
2018-06-27T01:12:52.246Z,90.20
2018-06-27T01:15:20.399Z,89.80
2018-06-27T01:17:52.482Z,89.50
2018-06-27T01:20:20.641Z,89.80
2018-06-27T01:22:49.582Z,89.70
2018-06-27T01:25:17.850Z,89.50
2018-06-27T01:27:46.215Z,89.60
2018-06-27T01:30:14.369Z,90.10
2018-06-27T01:32:42.502Z,90.00
2018-06-27T01:35:10.650Z,89.20
2018-06-27T01:37:38.783Z,90.00
2018-06-27T01:40:06.938Z,88.40
2018-06-27T01:42:35.850Z,87.90
2018-06-27T01:45:04.051Z,88.00
2018-06-27T01:47:32.207Z,88.30
2018-06-27T01:50:00.346Z,88.60
2018-06-27T01:52:28.531Z,88.90
2018-06-27T01:54:56.674Z,88.90
2018-06-27T01:57:25.549Z,88.90
2018-06-27T01:59:53.690Z,88.80
2018-06-27T02:02:22.155Z,88.40
2018-06-27T02:04:50.307Z,87.70
2018-06-27T02:07:18.438Z,88.10
2018-06-27T02:09:46.610Z,87.30
2018-06-27T02:12:14.754Z,87.10
2018-06-27T02:14:42.883Z,87.70
2018-06-27T02:17:11.035Z,87.40
2018-06-27T02:19:39.208Z,87.70
2018-06-27T02:22:07.378Z,87.90
2018-06-27T02:24:35.530Z,88.60
2018-06-27T02:27:03.691Z,88.40
2018-06-27T02:29:31.836Z,88.70
2018-06-27T02:32:00.198Z,90.00
2018-06-27T02:34:28.311Z,90.40
2018-06-27T02:36:56.445Z,90.10
2018-06-27T02:39:24.587Z,90.40
2018-06-27T02:41:52.720Z,90.50
2018-06-27T02:44:21.075Z,90.20
2018-06-27T02:46:49.224Z,90.20
2018-06-27T02:49:17.460Z,89.90
2018-06-27T02:51:45.577Z,89.80
2018-06-27T02:54:13.719Z,89.70
2018-06-27T02:56:41.822Z,89.00
2018-06-27T02:59:09.995Z,89.00
2018-06-27T03:01:38.385Z,89.70
2018-06-27T03:04:06.487Z,89.20
2018-06-27T03:06:34.579Z,88.50
2018-06-27T03:09:02.682Z,88.80
2018-06-27T03:11:30.796Z,88.40
2018-06-27T03:13:58.879Z,88.60
2018-06-27T03:16:26.994Z,88.90
2018-06-27T03:18:56.410Z,88.40
2018-06-27T03:21:25.111Z,88.10
2018-06-27T03:23:53.589Z,88.60
2018-06-27T03:26:21.734Z,88.70
2018-06-27T03:28:49.818Z,89.20
2018-06-27T03:31:18.232Z,88.90
2018-06-27T03:33:46.409Z,89.60
2018-06-27T03:36:14.668Z,89.60
2018-06-27T03:38:42.775Z,88.40
2018-06-27T03:41:10.861Z,87.80
2018-06-27T03:43:38.992Z,87.60
2018-06-27T03:46:07.082Z,88.00
2018-06-27T03:48:35.174Z,87.50
2018-06-27T03:51:03.826Z,87.60
2018-06-27T03:53:42.130Z,88.70
2018-06-27T03:56:11.653Z,89.30
2018-06-27T03:58:39.907Z,89.10
2018-06-27T04:01:09.327Z,89.10
2018-06-27T04:03:37.978Z,90.10
2018-06-27T04:06:06.397Z,90.10
2018-06-27T04:08:34.550Z,90.10
2018-06-27T04:11:02.635Z,89.80
2018-06-27T04:13:30.760Z,89.30
2018-06-27T04:15:58.931Z,89.20
2018-06-27T04:18:27.077Z,89.20
2018-06-27T04:20:55.159Z,90.20
2018-06-27T04:23:23.267Z,90.00
2018-06-27T04:25:51.367Z,90.00
2018-06-27T04:28:19.481Z,90.00
2018-06-27T04:30:47.571Z,90.00
2018-06-27T04:33:15.762Z,89.50
2018-06-27T04:35:43.910Z,89.10
2018-06-27T04:38:12.006Z,89.40
2018-06-27T04:40:40.104Z,89.00
2018-06-27T04:43:08.321Z,89.30
2018-06-27T04:45:36.416Z,89.60
2018-06-27T04:48:04.688Z,89.40
2018-06-27T04:50:32.791Z,89.20
2018-06-27T04:53:00.879Z,88.40
2018-06-27T04:55:29.062Z,88.70
2018-06-27T04:57:57.232Z,88.70
2018-06-27T05:00:25.383Z,89.10
2018-06-27T05:02:53.532Z,88.80
2018-06-27T05:05:21.684Z,89.00
2018-06-27T05:07:49.802Z,89.00
2018-06-27T05:10:18.039Z,88.40
2018-06-27T05:12:47.181Z,88.30
2018-06-27T05:15:15.386Z,88.30
2018-06-27T05:17:43.522Z,89.00
2018-06-27T05:20:11.777Z,89.10
2018-06-27T05:22:39.933Z,89.20
2018-06-27T05:25:08.054Z,89.20
2018-06-27T05:27:36.276Z,89.90
2018-06-27T05:30:04.651Z,90.30
2018-06-27T05:32:32.803Z,90.40
2018-06-27T05:35:00.907Z,90.60
2018-06-27T05:37:29.051Z,90.90
2018-06-27T05:39:57.178Z,91.30
2018-06-27T05:42:25.883Z,91.30
2018-06-27T05:44:54.020Z,91.70
2018-06-27T05:47:22.187Z,92.00
2018-06-27T05:49:50.342Z,92.00
2018-06-27T05:52:18.508Z,92.00
2018-06-27T05:54:50.191Z,92.20
2018-06-27T05:57:18.283Z,92.10
2018-06-27T05:59:46.360Z,92.60
2018-06-27T06:02:14.455Z,92.70
2018-06-27T06:04:42.542Z,92.80
2018-06-27T06:07:10.646Z,92.90
2018-06-27T06:09:38.753Z,93.00
2018-06-27T06:12:06.911Z,93.20
2018-06-27T06:14:35.014Z,93.10
2018-06-27T06:17:03.109Z,93.10
2018-06-27T06:19:31.209Z,93.00
2018-06-27T06:24:27.203Z,92.10
2018-06-27T06:26:55.310Z,92.10
2018-06-27T06:29:24.102Z,92.30
2018-06-27T06:31:52.291Z,92.00
2018-06-27T06:34:20.534Z,91.90
2018-06-27T06:36:49.154Z,92.20
2018-06-27T06:39:17.677Z,92.10
2018-06-27T06:41:45.832Z,91.70
2018-06-27T06:44:13.992Z,90.50
2018-06-27T06:46:42.086Z,87.40
2018-06-27T06:49:10.236Z,81.30
2018-06-27T06:54:06.469Z,70.00
2018-06-27T06:56:34.603Z,63.40
2018-06-27T06:59:02.745Z,58.60
2018-06-27T07:01:30.858Z,55.50
2018-06-27T07:03:59.104Z,52.70
2018-06-27T07:06:27.343Z,51.20
2018-06-27T07:11:23.416Z,47.40
2018-06-27T07:13:51.522Z,45.70
2018-06-27T07:16:19.682Z,44.50
2018-06-27T07:18:47.914Z,43.50
2018-06-27T07:21:16.048Z,42.30
2018-06-27T07:23:44.211Z,41.20
2018-06-27T07:26:12.377Z,40.60
2018-06-27T07:28:40.623Z,39.90
2018-06-27T07:31:08.671Z,38.90
2018-06-27T07:33:36.818Z,38.60
2018-06-27T07:36:05.000Z,37.60
2018-06-27T07:38:33.115Z,37.00
2018-06-27T07:41:01.232Z,36.40
2018-06-27T07:43:29.358Z,36.00
2018-06-27T07:45:57.482Z,35.80
2018-06-27T07:48:25.625Z,35.50
2018-06-27T07:50:53.745Z,35.50
2018-06-27T07:53:21.850Z,34.50
2018-06-27T07:55:49.934Z,34.10
2018-06-27T07:58:18.019Z,33.80
2018-06-27T08:00:46.108Z,33.80
2018-06-27T08:03:14.203Z,33.40
2018-06-27T08:05:42.295Z,33.20
2018-06-27T08:08:10.410Z,34.20
2018-06-27T08:10:38.526Z,34.60
2018-06-27T08:13:06.639Z,35.30
2018-06-27T08:15:34.724Z,36.00
2018-06-27T08:18:03.022Z,36.80
2018-06-27T08:20:30.927Z,37.70
2018-06-27T08:22:59.030Z,38.80
2018-06-27T08:25:27.131Z,39.80
2018-06-27T08:27:55.215Z,41.10
2018-06-27T08:30:23.349Z,42.10
2018-06-27T08:32:51.464Z,43.00
2018-06-27T08:35:19.568Z,44.70
2018-06-27T08:37:47.659Z,46.10
2018-06-27T08:40:15.751Z,46.80
2018-06-27T08:42:43.866Z,47.30
2018-06-27T08:45:11.974Z,48.10
2018-06-27T08:50:08.044Z,49.60
2018-06-27T08:52:36.163Z,50.30
2018-06-27T08:55:04.303Z,50.70
2018-06-27T08:57:32.442Z,50.40
2018-06-27T09:02:28.527Z,51.30
2018-06-27T09:04:57.039Z,50.80
2018-06-27T09:07:25.163Z,51.10
2018-06-27T09:09:53.300Z,50.70
2018-06-27T09:14:49.390Z,51.90
2018-06-27T09:17:18.052Z,51.80
2018-06-27T09:19:46.225Z,52.30
2018-06-27T09:22:14.348Z,52.00
2018-06-27T09:24:42.988Z,51.30
2018-06-27T09:27:11.141Z,51.40
2018-06-27T09:29:39.283Z,51.10
2018-06-27T09:32:07.430Z,50.90
2018-06-27T09:34:35.552Z,51.90
2018-06-27T09:37:03.670Z,51.30
2018-06-27T09:39:31.789Z,52.00
2018-06-27T09:42:00.798Z,50.40
2018-06-27T09:44:28.947Z,49.10
2018-06-27T09:46:58.136Z,48.90
2018-06-27T09:49:26.312Z,50.40
2018-06-27T09:51:54.436Z,50.00
2018-06-27T09:54:22.524Z,49.50
2018-06-27T09:56:50.651Z,49.20
2018-06-27T09:59:18.727Z,48.90
2018-06-27T10:01:46.822Z,48.70
2018-06-27T10:04:15.081Z,49.00
2018-06-27T10:06:43.171Z,47.50
2018-06-27T10:09:11.518Z,46.40
2018-06-27T10:11:39.734Z,45.70
2018-06-27T10:14:07.879Z,45.10
2018-06-27T10:16:35.994Z,44.90
2018-06-27T10:19:04.087Z,45.10
2018-06-27T10:21:32.285Z,44.30
2018-06-27T10:24:00.404Z,44.10
2018-06-27T10:26:28.509Z,43.50
2018-06-27T10:28:56.579Z,43.00
2018-06-27T10:31:24.677Z,43.40
2018-06-27T10:33:52.771Z,43.90
2018-06-27T10:36:20.873Z,43.50
2018-06-27T10:38:48.958Z,43.10
2018-06-27T10:43:45.941Z,41.90
2018-06-27T10:46:14.060Z,42.00
2018-06-27T10:48:42.221Z,42.10
2018-06-27T10:51:10.362Z,42.30
2018-06-27T10:53:38.478Z,41.50
2018-06-27T10:56:06.604Z,42.10
2018-06-27T10:58:34.688Z,41.00
2018-06-27T11:01:03.453Z,41.40
2018-06-27T11:03:31.516Z,40.00
2018-06-27T11:05:59.600Z,39.10
2018-06-27T11:08:27.734Z,39.60
2018-06-27T11:10:55.828Z,39.80
2018-06-27T11:13:23.915Z,40.20
2018-06-27T11:15:51.995Z,39.50
2018-06-27T11:18:20.123Z,38.20
2018-06-27T11:20:48.199Z,37.20
2018-06-27T11:23:16.295Z,37.90
2018-06-27T11:25:44.387Z,38.20
2018-06-27T11:28:12.505Z,37.90
2018-06-27T11:30:40.607Z,37.60
2018-06-27T11:33:08.788Z,37.80
2018-06-27T11:35:36.892Z,37.80
2018-06-27T11:38:05.086Z,38.30
2018-06-27T11:40:33.199Z,39.10
2018-06-27T11:43:02.013Z,38.00
2018-06-27T11:45:30.111Z,40.20
2018-06-27T11:47:58.222Z,37.40
2018-06-27T11:50:26.307Z,38.10
2018-06-27T11:52:54.427Z,37.10
2018-06-27T11:55:22.584Z,37.20
2018-06-27T11:57:50.703Z,38.70
2018-06-27T12:00:18.845Z,39.70
2018-06-27T12:02:46.964Z,39.30
2018-06-27T12:05:15.103Z,39.00
2018-06-27T12:07:43.247Z,38.50
2018-06-27T12:10:11.379Z,39.20
2018-06-27T12:12:39.515Z,38.70
2018-06-27T12:15:08.646Z,39.30
2018-06-27T12:17:36.778Z,39.10
2018-06-27T12:20:05.050Z,39.70
2018-06-27T12:22:33.167Z,38.60
2018-06-27T12:25:01.330Z,38.40
2018-06-27T12:27:29.463Z,38.60
2018-06-27T12:29:57.599Z,38.30
2018-06-27T12:32:25.761Z,38.10
2018-06-27T12:34:53.893Z,37.10
2018-06-27T12:37:22.018Z,37.20
2018-06-27T12:39:50.203Z,36.30
2018-06-27T12:42:18.516Z,36.10
2018-06-27T12:44:46.676Z,36.70
2018-06-27T12:47:14.899Z,36.20
2018-06-27T12:49:43.037Z,34.80
2018-06-27T12:52:11.187Z,34.30
2018-06-27T12:54:39.290Z,34.40
2018-06-27T12:57:07.423Z,34.10
2018-06-27T12:59:35.543Z,34.90
2018-06-27T13:02:03.709Z,34.00
2018-06-27T13:04:31.820Z,34.60
2018-06-27T13:06:59.986Z,34.70
2018-06-27T13:09:28.258Z,35.40
2018-06-27T13:11:56.566Z,34.90
2018-06-27T13:14:24.674Z,34.10
2018-06-27T13:16:52.845Z,34.60
2018-06-27T13:19:21.055Z,34.60
2018-06-27T13:21:49.175Z,35.30
2018-06-27T16:01:14.120Z,40.90
2018-06-27T16:03:42.938Z,42.10
2018-06-27T16:06:11.024Z,42.90
2018-06-27T16:08:39.127Z,40.20
2018-06-27T16:11:07.270Z,39.60
2018-06-27T16:13:35.312Z,38.20
2018-06-27T16:16:03.407Z,36.40
2018-06-27T16:18:31.520Z,36.00
2018-06-27T16:20:59.622Z,36.00
2018-06-27T16:23:27.708Z,36.70
2018-06-27T16:25:55.807Z,35.70
2018-06-27T16:28:23.914Z,35.70
2018-06-27T16:30:52.020Z,34.80
2018-06-27T16:33:20.123Z,35.20
2018-06-27T16:35:48.233Z,35.50
2018-06-27T16:38:16.360Z,35.60
2018-06-27T16:40:44.444Z,34.90
2018-06-27T16:43:12.661Z,35.10
2018-06-27T16:45:40.690Z,34.60
2018-06-27T16:48:08.795Z,35.00
2018-06-27T16:50:36.951Z,36.10
2018-06-27T16:53:05.075Z,35.50
2018-06-27T16:55:33.684Z,34.80
2018-06-27T16:58:01.786Z,34.90
2018-06-27T17:00:29.914Z,34.90
2018-06-27T17:02:58.008Z,35.50
2018-06-27T17:05:26.114Z,35.70
2018-06-27T17:07:54.298Z,36.00
2018-06-27T17:10:22.362Z,35.80
2018-06-27T17:12:50.525Z,35.10
2018-06-27T17:15:18.989Z,34.90
2018-06-27T17:17:47.112Z,34.80
2018-06-27T17:20:15.238Z,35.70
2018-06-27T17:22:44.006Z,35.60
2018-06-27T17:25:12.110Z,34.80
2018-06-27T17:27:40.248Z,35.90
2018-06-27T17:30:08.370Z,35.30
2018-06-27T17:32:36.484Z,35.80
2018-06-27T17:35:04.572Z,35.60
2018-06-27T17:42:28.613Z,36.40
2018-06-27T17:44:56.759Z,36.30
2018-06-27T17:47:24.855Z,35.90
2018-06-27T17:49:52.967Z,36.00
2018-06-27T17:52:21.056Z,35.70
2018-06-27T17:54:49.452Z,36.60
2018-06-27T17:57:17.613Z,36.50
2018-06-27T17:59:45.754Z,36.50
2018-06-27T18:02:14.018Z,36.70
2018-06-27T18:04:43.158Z,37.10
2018-06-27T18:07:11.407Z,37.40
2018-06-27T18:09:39.547Z,38.10
2018-06-27T18:12:07.658Z,36.90
2018-06-27T18:14:35.809Z,37.60
2018-06-27T18:17:04.380Z,37.80
2018-06-27T18:19:32.642Z,37.70
2018-06-27T18:22:00.772Z,38.20
2018-06-27T18:24:28.899Z,38.00
2018-06-27T18:26:57.042Z,38.00
2018-06-27T18:29:25.176Z,38.30
2018-06-27T18:31:53.544Z,38.10
2018-06-27T18:34:21.703Z,38.20
2018-06-27T18:36:49.843Z,38.80
2018-06-27T18:39:17.967Z,38.70
2018-06-27T18:41:46.187Z,39.50
2018-06-27T18:44:14.372Z,39.00
2018-06-27T18:46:42.543Z,40.10
2018-06-27T18:49:10.692Z,40.00
2018-06-27T18:51:38.908Z,41.50
2018-06-27T18:54:07.024Z,40.60
2018-06-27T18:56:35.240Z,41.20
2018-06-27T18:59:03.358Z,41.10
2018-06-27T19:01:31.462Z,41.40
2018-06-27T19:03:59.571Z,41.20
2018-06-27T19:06:27.683Z,41.90
2018-06-27T19:08:55.796Z,42.40
2018-06-27T19:11:23.918Z,42.60
2018-06-27T19:13:52.031Z,43.60
2018-06-27T19:16:20.150Z,43.20
2018-06-27T19:18:48.289Z,44.30
2018-06-27T19:21:16.380Z,44.50
2018-06-27T19:23:44.492Z,45.20
2018-06-27T19:26:12.636Z,44.00
2018-06-27T19:28:40.745Z,45.70
2018-06-27T19:31:08.832Z,45.10
2018-06-27T19:33:36.964Z,46.00
2018-06-27T19:36:05.246Z,45.70
2018-06-27T19:38:33.363Z,45.60
2018-06-27T19:41:01.598Z,47.10
2018-06-27T19:43:29.567Z,46.30
2018-06-27T19:45:57.669Z,45.80
2018-06-27T19:48:25.842Z,46.70
2018-06-27T19:50:54.006Z,48.20
2018-06-27T19:53:22.110Z,48.60
2018-06-27T19:55:50.227Z,48.20
2018-06-27T19:58:19.305Z,47.90
2018-06-27T20:00:47.319Z,48.60
2018-06-27T20:03:15.613Z,48.30
2018-06-27T20:05:44.039Z,48.20
2018-06-27T20:08:12.135Z,48.70
2018-06-27T20:10:40.382Z,48.70
2018-06-27T20:13:08.401Z,48.80
2018-06-27T20:15:36.696Z,49.00
2018-06-27T20:18:04.905Z,49.60
2018-06-27T20:20:33.059Z,50.40
2018-06-27T20:23:01.159Z,50.20
2018-06-27T20:25:29.281Z,51.00
2018-06-27T20:27:58.062Z,51.00
2018-06-27T20:30:26.249Z,50.80
2018-06-27T20:32:54.408Z,50.90
2018-06-27T20:35:22.495Z,52.00
2018-06-27T20:37:51.103Z,51.70
2018-06-27T20:40:20.281Z,52.70
2018-06-27T20:42:48.696Z,51.80
2018-06-27T20:45:16.887Z,52.20
2018-06-27T20:47:45.052Z,52.20
2018-06-27T20:50:13.144Z,52.20
2018-06-27T20:52:41.261Z,52.80
2018-06-27T20:55:09.441Z,53.20
2018-06-27T20:57:37.564Z,54.30
2018-06-27T21:00:06.715Z,54.60
2018-06-27T21:02:34.908Z,54.70
2018-06-27T21:05:03.032Z,54.50
2018-06-27T21:07:31.147Z,55.20
2018-06-27T21:09:59.251Z,55.60
2018-06-27T21:14:55.885Z,56.40
2018-06-27T21:17:24.034Z,57.10
2018-06-27T21:19:52.171Z,55.90
2018-06-27T21:22:20.275Z,56.70
2018-06-27T21:24:48.403Z,57.00
2018-06-27T21:27:16.591Z,57.10
2018-06-27T21:29:44.737Z,58.00
2018-06-27T21:32:12.831Z,57.40
2018-06-27T21:34:40.935Z,57.50
2018-06-27T21:37:09.031Z,57.40
2018-06-27T21:39:37.145Z,57.80
2018-06-27T21:44:33.242Z,58.20
2018-06-27T21:47:01.404Z,58.90
2018-06-27T21:49:29.485Z,58.40
2018-06-27T21:51:57.625Z,58.40
2018-06-27T21:54:25.819Z,58.20
2018-06-27T21:56:53.957Z,59.30
2018-06-27T21:59:22.103Z,59.40
2018-06-27T22:01:50.288Z,58.50
2018-06-27T22:04:18.778Z,58.70
2018-06-27T22:06:46.931Z,59.10
2018-06-27T22:09:15.245Z,60.00
2018-06-27T22:11:43.207Z,59.50
2018-06-27T22:14:11.396Z,59.50
2018-06-27T22:16:39.580Z,59.80
2018-06-27T22:19:07.689Z,60.40
2018-06-27T22:21:35.941Z,61.00
2018-06-27T22:24:04.062Z,62.30
2018-06-27T22:26:32.219Z,61.40
2018-06-27T22:29:00.366Z,61.70
2018-06-27T22:31:28.561Z,61.50
2018-06-27T22:33:56.710Z,62.90
2018-06-27T22:36:24.867Z,62.60
2018-06-27T22:38:53.035Z,62.90
2018-06-27T22:41:21.150Z,63.50
2018-06-27T22:43:49.297Z,63.50
2018-06-27T22:46:17.439Z,64.90
2018-06-27T22:51:14.518Z,65.20
2018-06-27T22:56:10.622Z,66.10
2018-06-27T22:58:38.780Z,68.10
2018-06-27T23:01:06.984Z,67.30
2018-06-27T23:03:35.145Z,69.00
2018-06-27T23:06:03.282Z,68.80
2018-06-27T23:08:31.807Z,70.10
2018-06-27T23:11:00.024Z,70.10
2018-06-27T23:13:28.099Z,70.60
2018-06-27T23:15:56.251Z,70.10
2018-06-27T23:18:24.400Z,70.70
2018-06-27T23:20:52.567Z,71.10
2018-06-27T23:23:20.703Z,72.30
2018-06-27T23:25:48.849Z,73.40
2018-06-27T23:28:17.033Z,72.60
2018-06-27T23:30:45.179Z,73.60
2018-06-27T23:33:13.647Z,74.40
2018-06-27T23:35:42.756Z,75.50
2018-06-27T23:38:10.915Z,75.80
2018-06-27T23:40:39.056Z,75.80
2018-06-27T23:43:07.181Z,76.90
2018-06-27T23:45:35.330Z,76.80
2018-06-27T23:48:03.466Z,77.50
2018-06-27T23:50:31.611Z,77.50
2018-06-27T23:53:00.695Z,78.40
2018-06-27T23:55:28.851Z,78.90
2018-06-27T23:57:57.014Z,79.40
